CheckWX is a tool to help pilots better visualize weather data.  It is not intended as a substitute for an official pre-flight weather briefing.

02:11:58 UTC

KGUS TAF
Grissom Air Reserve Base Airport
Peru, Indiana, USA
TAF KGUS 100300Z 1003/1109 19006KT 9999 SKC QNH2983INS BECMG 1011/1012 20012G18KT 9000 -SHRA BKN016 QNH2982INS TEMPO 1013/1015 21020G40KT 4800 TSRA OVC016CB BECMG 1017/1018 23012G18KT 9999 NSW SCT050 QNH2983INS BECMG 1102/1103 33006KT 9999 FEW035 QNH2983INS TX30/1020Z TN22/1103Z

Jul-10@
03:00 UTC

Jul-10 @ 03:00 UTC

Jul-10@
11:00 UTC

Jul-10 @ 11:00 UTC

TAF KGUS 100300Z 1003/1109 19006KT 9999 SKC QNH2983INS

Expired

Wind
  • 190° at 6 KTS
Cloud Levels
  • Clear skies

Jul-10@
11:00 UTC

Jul-10 @ 11:00 UTC

Jul-10@
17:00 UTC

Jul-10 @ 17:00 UTC

BECMG 1011/1012 20012G18KT 9000 -SHRA BKN016 QNH2982INS

Expired

Wind
  • 200° at 12 KTS
  • {Gusting to 18 KTS
Conditions
Light Showers, Rain
Cloud Levels
  • Broken at 1,600' AGL

Jul-10@
13:00 UTC

Jul-10 @ 13:00 UTC

Jul-10@
15:00 UTC

Jul-10 @ 15:00 UTC

TEMPO 1013/1015 21020G40KT 4800 TSRA OVC016CB

Expired

Wind
  • 210° at 20 KTS
  • {Gusting to 40 KTS
Conditions
Thunderstorm, Rain
Cloud Levels
  • Overcast at 1,600' AGL

Jul-10@
17:00 UTC

Jul-10 @ 17:00 UTC

Jul-11@
02:00 UTC

Jul-11 @ 02:00 UTC

BECMG 1017/1018 23012G18KT 9999 NSW SCT050 QNH2983INS

Expired

Wind
  • 230° at 12 KTS
  • {Gusting to 18 KTS
Conditions
No significant weather
Cloud Levels
  • Scattered at 5,000' AGL

Jul-11@
02:00 UTC

Jul-11 @ 02:00 UTC

Jul-11@
09:00 UTC

Jul-11 @ 09:00 UTC

BECMG 1102/1103 33006KT 9999 FEW035 QNH2983INS TX30/1020Z TN22/1103Z

Becoming

Becoming Conditions expected by Sat, Jul 11, 2020 @ 03:00 UTC

Wind
  • 330° at 6 KTS
Conditions
No significant weather
Cloud Levels
  • Few at 3,500' AGL